Time;durP1;ratioP1;P1;durP2;ratioP2;P2;SDS_P1;SDS_P2;PMS_P1;PMS_P2;Temp;Humidity;BMP_temperature;BMP_pressure;BME280_temperature;BME280_humidity;BME280_pressure;Samples;Min_cycle;Max_cycle;Signal;HPM_P1;HPM_P2
2023/08/10 00:02:18;;;;;;;10.47;4.57;;;;;;;16.87;73.88;96613.41;5087926;28;20412;-69
2023/08/10 00:04:43;;;;;;;4.07;3.20;;;;;;;16.86;74.08;96610.84;5087900;28;20222;-71
2023/08/10 00:07:09;;;;;;;3.50;3.20;;;;;;;16.84;73.75;96615.38;5087824;28;20550;-70
2023/08/10 00:09:34;;;;;;;8.00;3.97;;;;;;;16.77;74.27;96609.63;5087672;28;20173;-69
2023/08/10 00:11:59;;;;;;;5.77;2.70;;;;;;;16.79;73.42;96615.69;5080657;28;20261;-70
2023/08/10 00:14:25;;;;;;;5.10;3.40;;;;;;;16.78;74.31;96616.59;5067650;28;20205;-70
2023/08/10 00:16:52;;;;;;;3.27;2.80;;;;;;;16.70;74.13;96616.25;5077946;28;20284;-71
2023/08/10 00:19:17;;;;;;;5.30;2.83;;;;;;;16.83;74.07;96619.00;5069519;28;20273;-72
2023/08/10 00:21:42;;;;;;;3.13;2.83;;;;;;;16.77;74.33;96620.22;5067281;28;20507;-70
2023/08/10 00:24:08;;;;;;;4.93;3.00;;;;;;;16.79;72.90;96626.28;5066742;28;20532;-70
2023/08/10 00:26:33;;;;;;;5.83;3.77;;;;;;;16.72;73.19;96622.28;5067406;28;20287;-70
2023/08/10 00:28:59;;;;;;;4.03;3.07;;;;;;;16.79;72.31;96617.47;5066974;28;20209;-70
2023/08/10 00:31:24;;;;;;;4.53;3.20;;;;;;;16.76;71.74;96617.66;5067195;28;20174;-71
2023/08/10 00:33:49;;;;;;;3.80;2.67;;;;;;;16.80;70.20;96617.41;5067293;28;20742;-69
2023/08/10 00:36:15;;;;;;;4.40;2.70;;;;;;;16.78;69.12;96618.41;5072917;28;20189;-68
2023/08/10 00:38:41;;;;;;;2.90;2.30;;;;;;;16.72;68.14;96615.22;5077365;28;20289;-70
2023/08/10 00:41:07;;;;;;;4.03;2.50;;;;;;;16.60;68.19;96616.00;5072322;28;20178;-72
2023/08/10 00:43:33;;;;;;;3.00;2.70;;;;;;;16.61;68.17;96612.41;5070249;28;20181;-70
2023/08/10 00:45:59;;;;;;;3.83;3.50;;;;;;;16.57;68.36;96612.72;5068637;28;20893;-71
2023/08/10 00:48:25;;;;;;;6.53;2.90;;;;;;;16.58;68.85;96609.94;5068168;28;20225;-70
2023/08/10 00:50:53;;;;;;;3.10;2.70;;;;;;;16.51;68.66;96603.34;5067541;28;20416;-71
2023/08/10 00:53:18;;;;;;;4.40;3.03;;;;;;;16.46;68.64;96608.09;5067469;28;21078;-68
2023/08/10 00:55:50;;;;;;;3.53;2.47;;;;;;;16.49;68.76;96603.44;5066972;28;20416;-69
2023/08/10 00:58:16;;;;;;;5.53;3.00;;;;;;;16.47;68.50;96600.03;5067114;28;20221;-68
2023/08/10 01:00:41;;;;;;;9.83;3.77;;;;;;;16.46;68.28;96594.84;5066551;28;20444;-71
2023/08/10 01:03:07;;;;;;;6.60;3.27;;;;;;;16.50;67.89;96601.66;5066812;28;20181;-71
2023/08/10 01:05:38;;;;;;;3.03;2.67;;;;;;;16.46;67.47;96598.38;5066889;28;20181;-69
2023/08/10 01:08:08;;;;;;;7.10;3.20;;;;;;;16.38;68.10;96598.00;5066495;28;20289;-69
2023/08/10 01:10:44;;;;;;;3.87;3.40;;;;;;;16.33;67.93;96594.78;5066323;28;20459;-68
2023/08/10 01:13:15;;;;;;;3.37;2.73;;;;;;;16.34;67.72;96598.28;5082971;28;20503;-71
2023/08/10 01:15:49;;;;;;;3.00;2.70;;;;;;;16.36;67.49;96594.59;5086714;28;20416;-70
2023/08/10 01:18:18;;;;;;;3.30;2.80;;;;;;;16.26;67.70;96596.13;5086334;28;20443;-68
2023/08/10 01:20:45;;;;;;;3.30;3.00;;;;;;;15.98;67.95;96599.66;5086271;28;20416;-72
2023/08/10 01:23:30;;;;;;;44.33;5.70;;;;;;;16.04;68.12;96601.94;5086478;28;20417;-68
2023/08/10 01:25:57;;;;;;;5.60;3.17;;;;;;;16.19;67.27;96608.06;5086303;28;20407;-70
2023/08/10 01:28:23;;;;;;;3.50;2.90;;;;;;;16.12;67.82;96609.38;5086299;28;20436;-69
2023/08/10 01:30:49;;;;;;;3.80;2.93;;;;;;;16.14;67.37;96603.03;5086061;28;20524;-71
2023/08/10 01:33:14;;;;;;;2.53;2.20;;;;;;;16.21;66.65;96611.47;5086113;28;20461;-70
2023/08/10 01:35:40;;;;;;;15.53;3.83;;;;;;;16.19;67.10;96600.13;5086248;28;20242;-69
2023/08/10 01:38:05;;;;;;;2.83;2.60;;;;;;;16.07;67.55;96601.72;5086162;28;20199;-71
2023/08/10 01:40:31;;;;;;;10.63;3.50;;;;;;;16.13;67.07;96609.28;5085795;28;20165;-69
2023/08/10 01:42:57;;;;;;;3.73;2.90;;;;;;;16.19;67.14;96608.91;5086071;28;20561;-70
2023/08/10 01:45:22;;;;;;;4.43;3.60;;;;;;;16.20;66.58;96612.38;5086195;28;20408;-69
2023/08/10 01:48:12;;;;;;;3.93;3.10;;;;;;;16.27;67.29;96603.09;5085906;28;20220;-70
2023/08/10 01:50:44;;;;;;;9.03;3.40;;;;;;;16.30;67.23;96605.59;5086033;28;20185;-70
2023/08/10 01:53:15;;;;;;;4.27;3.10;;;;;;;16.26;67.15;96607.56;5086080;28;20483;-69
2023/08/10 01:55:41;;;;;;;3.63;3.00;;;;;;;16.27;66.80;96611.91;5085869;28;20404;-70
2023/08/10 01:58:06;;;;;;;3.47;2.90;;;;;;;16.26;66.92;96612.00;5085755;28;20431;-69
2023/08/10 02:00:33;;;;;;;3.77;3.00;;;;;;;16.24;67.33;96601.50;5085635;28;20185;-71
2023/08/10 02:02:58;;;;;;;3.67;2.70;;;;;;;16.27;67.37;96608.41;5085785;28;20173;-71
2023/08/10 02:05:25;;;;;;;4.83;3.90;;;;;;;16.32;67.30;96600.16;5085974;28;20468;-68
2023/08/10 02:07:50;;;;;;;9.30;3.60;;;;;;;16.28;67.84;96608.31;5085796;28;20196;-68
2023/08/10 02:10:16;;;;;;;8.87;4.30;;;;;;;16.12;68.49;96612.03;5085579;28;21085;-70
2023/08/10 02:12:42;;;;;;;11.90;4.30;;;;;;;16.22;68.83;96606.03;5072632;28;20198;-71
2023/08/10 02:15:07;;;;;;;8.60;4.20;;;;;;;16.14;69.03;96607.50;5065907;28;20423;-69
2023/08/10 02:17:36;;;;;;;4.10;3.43;;;;;;;16.16;68.90;96606.44;5065298;28;20190;-72
2023/08/10 02:20:11;;;;;;;4.13;3.07;;;;;;;16.12;68.68;96610.22;5065264;28;20170;-71
2023/08/10 02:22:37;;;;;;;3.43;2.93;;;;;;;16.11;69.25;96607.66;5065904;28;20444;-73
2023/08/10 02:25:03;;;;;;;5.03;3.40;;;;;;;16.05;69.14;96604.47;5065769;28;20440;-68
2023/08/10 02:27:29;;;;;;;5.03;3.50;;;;;;;16.03;69.13;96611.66;5066037;28;20194;-67
2023/08/10 02:29:54;;;;;;;4.00;3.60;;;;;;;16.03;69.06;96605.50;5065393;28;20408;-69
2023/08/10 02:32:20;;;;;;;3.90;3.50;;;;;;;15.98;69.37;96603.16;5065589;28;20182;-69
2023/08/10 02:34:45;;;;;;;6.37;4.40;;;;;;;15.96;69.74;96610.31;5065479;28;20213;-68
2023/08/10 02:37:11;;;;;;;4.30;3.30;;;;;;;15.87;69.66;96608.25;5065608;28;20220;-69
2023/08/10 02:39:36;;;;;;;4.10;3.40;;;;;;;15.83;70.17;96609.41;5065202;28;20627;-69
2023/08/10 02:42:02;;;;;;;6.33;3.70;;;;;;;15.82;69.97;96603.25;5065567;28;20279;-69
2023/08/10 02:44:27;;;;;;;5.70;3.20;;;;;;;15.81;70.14;96606.00;5065317;28;20638;-72
2023/08/10 02:46:53;;;;;;;4.43;3.93;;;;;;;15.85;70.19;96607.50;5068066;28;20413;-70
2023/08/10 02:49:18;;;;;;;6.30;3.20;;;;;;;15.78;70.15;96601.75;5068898;28;20212;-68
2023/08/10 02:51:43;;;;;;;3.77;3.17;;;;;;;15.85;69.71;96607.50;5069472;28;20182;-68
2023/08/10 02:54:09;;;;;;;3.87;3.47;;;;;;;15.81;69.93;96608.66;5069389;28;20218;-69
2023/08/10 02:56:34;;;;;;;6.20;3.13;;;;;;;15.80;70.02;96613.09;5069084;28;20292;-68
2023/08/10 02:59:00;;;;;;;8.03;4.03;;;;;;;15.82;69.45;96612.97;5068459;28;20198;-68
2023/08/10 03:01:25;;;;;;;4.83;3.23;;;;;;;15.93;69.86;96607.88;5068825;28;20624;-69
2023/08/10 03:03:51;;;;;;;6.47;3.30;;;;;;;15.91;69.50;96612.41;5068764;28;20181;-69
2023/08/10 03:06:16;;;;;;;4.47;3.30;;;;;;;15.95;69.17;96605.16;5068873;28;20417;-72
2023/08/10 03:08:42;;;;;;;9.73;3.43;;;;;;;15.99;69.19;96598.69;5068356;28;20289;-72
2023/08/10 03:11:07;;;;;;;11.40;3.20;;;;;;;15.93;68.87;96601.75;5068599;28;20275;-71
2023/08/10 03:13:32;;;;;;;6.30;3.73;;;;;;;15.90;69.28;96610.72;5088603;28;20201;-71
2023/08/10 03:15:58;;;;;;;5.03;3.20;;;;;;;15.90;69.16;96610.72;5089363;28;20176;-69
2023/08/10 03:18:23;;;;;;;4.83;3.57;;;;;;;15.88;69.31;96608.16;5088523;28;20622;-70
2023/08/10 03:20:49;;;;;;;6.50;3.27;;;;;;;15.99;68.72;96606.63;5088646;28;20231;-69
2023/08/10 03:23:14;;;;;;;10.47;4.07;;;;;;;15.91;68.88;96593.88;5088755;28;20174;-68
2023/08/10 03:25:39;;;;;;;6.30;3.50;;;;;;;15.93;68.89;96605.22;5088803;28;20215;-69
2023/08/10 03:28:05;;;;;;;5.80;3.73;;;;;;;15.94;68.87;96604.28;5088593;28;20185;-70
2023/08/10 03:30:32;;;;;;;6.40;3.50;;;;;;;15.91;68.24;96604.47;5088389;28;20180;-68
2023/08/10 03:32:58;;;;;;;8.70;3.70;;;;;;;15.81;68.63;96608.66;5088662;28;20577;-68
2023/08/10 03:35:23;;;;;;;5.60;3.23;;;;;;;15.83;68.10;96615.53;5088693;28;20415;-69
2023/08/10 03:37:48;;;;;;;4.63;3.27;;;;;;;15.83;68.59;96618.19;5088488;28;20246;-68
2023/08/10 03:40:14;;;;;;;5.40;3.63;;;;;;;15.74;69.53;96626.69;5087903;28;20170;-70
2023/08/10 03:42:39;;;;;;;6.17;3.83;;;;;;;15.77;69.77;96618.56;5088561;28;20165;-68
2023/08/10 03:45:05;;;;;;;7.50;3.70;;;;;;;15.65;69.75;96628.06;5088557;28;20208;-68
2023/08/10 03:47:31;;;;;;;13.43;3.83;;;;;;;15.53;69.82;96628.78;5088215;28;20224;-70
2023/08/10 03:49:56;;;;;;;36.00;5.50;;;;;;;15.32;70.80;96628.28;5087974;28;20511;-70
2023/08/10 03:52:23;;;;;;;8.70;3.67;;;;;;;15.27;71.74;96622.41;5088256;28;20181;-70
2023/08/10 03:54:48;;;;;;;6.83;3.77;;;;;;;15.24;71.86;96631.38;5088123;28;20165;-68
2023/08/10 03:57:14;;;;;;;8.30;4.00;;;;;;;15.11;72.55;96640.13;5086651;28;20962;-70
2023/08/10 03:59:39;;;;;;;4.57;4.13;;;;;;;15.22;72.21;96635.06;5088638;28;20254;-68
2023/08/10 04:02:04;;;;;;;4.57;3.83;;;;;;;15.29;71.84;96643.50;5088683;28;20178;-68
2023/08/10 04:04:30;;;;;;;4.57;3.30;;;;;;;15.34;71.43;96638.78;5090700;28;20205;-67
2023/08/10 04:06:55;;;;;;;3.23;2.93;;;;;;;15.38;71.88;96645.59;5090135;28;20173;-69
2023/08/10 04:09:21;;;;;;;7.20;4.60;;;;;;;15.38;71.40;96635.88;5089200;28;20175;-67
2023/08/10 04:11:46;;;;;;;13.50;4.23;;;;;;;15.41;71.66;96638.31;5084013;28;20174;-69
2023/08/10 04:14:12;;;;;;;5.57;3.77;;;;;;;15.40;71.75;96638.41;5069495;28;20201;-69
2023/08/10 04:16:37;;;;;;;5.63;3.40;;;;;;;15.28;72.02;96641.78;5069422;28;20200;-71
2023/08/10 04:19:03;;;;;;;14.60;3.60;;;;;;;15.11;73.28;96648.06;5069099;28;20248;-69
2023/08/10 04:21:28;;;;;;;19.37;4.70;;;;;;;14.91;74.01;96644.78;5067037;28;20186;-68
2023/08/10 04:23:53;;;;;;;10.50;4.50;;;;;;;14.80;74.68;96645.38;5063133;28;20170;-68
2023/08/10 04:26:19;;;;;;;22.90;5.13;;;;;;;14.88;74.94;96649.38;5054482;28;20543;-69
2023/08/10 04:28:44;;;;;;;7.30;4.53;;;;;;;14.91;75.11;96639.47;5048620;28;20199;-71
2023/08/10 04:31:10;;;;;;;10.00;4.77;;;;;;;14.78;75.89;96649.03;5048661;28;20265;-68
2023/08/10 04:33:35;;;;;;;21.23;6.40;;;;;;;14.55;76.99;96648.56;5047653;28;20248;-69
2023/08/10 04:36:02;;;;;;;9.10;5.27;;;;;;;14.66;76.70;96655.88;5047068;28;20620;-69
2023/08/10 04:38:27;;;;;;;6.90;5.20;;;;;;;14.54;77.29;96644.19;5047583;28;20186;-68
2023/08/10 04:40:53;;;;;;;9.03;5.40;;;;;;;14.67;76.29;96646.16;5047598;28;20508;-67
2023/08/10 04:43:18;;;;;;;6.93;5.27;;;;;;;14.49;77.41;96646.22;5047065;28;20179;-69
2023/08/10 04:45:44;;;;;;;9.63;5.97;;;;;;;14.63;76.98;96650.75;5047828;28;20261;-71
2023/08/10 04:48:10;;;;;;;11.00;5.33;;;;;;;14.55;77.10;96651.19;5049669;28;20668;-70
2023/08/10 04:50:35;;;;;;;16.80;5.80;;;;;;;14.82;76.29;96650.56;5046856;28;20167;-72
2023/08/10 04:53:02;;;;;;;17.43;6.07;;;;;;;14.81;76.32;96655.00;5046900;28;20503;-68
2023/08/10 04:55:28;;;;;;;19.23;6.30;;;;;;;15.00;75.38;96660.09;5047616;28;20190;-72
2023/08/10 04:57:53;;;;;;;11.77;4.53;;;;;;;14.99;75.37;96655.75;5047889;28;20906;-71
2023/08/10 05:00:19;;;;;;;11.33;5.60;;;;;;;15.20;74.71;96658.94;5046676;28;20202;-68
2023/08/10 05:02:45;;;;;;;12.43;5.87;;;;;;;15.64;72.68;96662.56;5047104;28;20188;-70
2023/08/10 05:05:10;;;;;;;16.47;6.33;;;;;;;16.18;70.29;96659.28;5046881;28;20175;-70
2023/08/10 05:07:37;;;;;;;10.23;6.30;;;;;;;16.84;67.26;96655.13;5046760;28;20195;-70
2023/08/10 05:10:05;;;;;;;9.57;5.20;;;;;;;16.79;67.11;96660.72;5046209;28;20414;-70
2023/08/10 05:12:31;;;;;;;6.90;5.50;;;;;;;17.31;65.04;96656.47;5069340;28;20499;-69
2023/08/10 05:14:56;;;;;;;5.57;4.67;;;;;;;17.26;65.29;96666.53;5065758;28;20437;-71
2023/08/10 05:17:21;;;;;;;7.20;4.47;;;;;;;18.41;62.47;96662.16;5055488;28;20923;-74
2023/08/10 05:19:47;;;;;;;73.93;11.30;;;;;;;19.40;58.81;96665.66;5065087;28;20181;-73
2023/08/10 05:22:12;;;;;;;15.73;4.80;;;;;;;19.48;57.93;96660.59;5066511;28;20220;-72
2023/08/10 05:24:38;;;;;;;13.00;5.13;;;;;;;19.71;58.15;96655.38;5065728;28;20188;-71
2023/08/10 05:27:03;;;;;;;7.33;3.77;;;;;;;19.75;57.34;96654.16;5060362;28;20603;-73
2023/08/10 05:29:29;;;;;;;14.87;4.73;;;;;;;19.88;57.53;96666.41;5067360;28;20178;-70
2023/08/10 05:31:54;;;;;;;6.00;4.47;;;;;;;19.38;58.00;96672.91;5066654;28;20166;-71
2023/08/10 05:34:20;;;;;;;9.10;4.50;;;;;;;19.17;57.64;96664.72;5076429;28;20730;-72
2023/08/10 05:36:45;;;;;;;18.03;5.50;;;;;;;18.83;59.57;96670.69;5067149;28;20915;-69
2023/08/10 05:39:11;;;;;;;19.50;5.90;;;;;;;19.30;58.48;96670.84;5066636;28;21047;-71
2023/08/10 05:41:36;;;;;;;7.90;4.40;;;;;;;19.35;57.74;96674.00;5068202;28;20245;-69
2023/08/10 05:44:01;;;;;;;7.07;4.10;;;;;;;19.06;59.07;96677.94;5066754;28;20177;-73
2023/08/10 05:46:27;;;;;;;9.50;5.13;;;;;;;18.88;59.27;96682.81;5066544;28;20192;-75
2023/08/10 05:48:52;;;;;;;6.60;5.03;;;;;;;18.70;59.67;96680.47;5065700;28;20683;-71
2023/08/10 05:51:18;;;;;;;5.13;4.63;;;;;;;18.60;60.44;96682.13;5066213;28;20158;-71
2023/08/10 05:53:44;;;;;;;9.10;4.40;;;;;;;19.72;57.51;96678.38;5066587;28;20635;-74
2023/08/10 05:56:10;;;;;;;10.53;5.50;;;;;;;19.18;58.21;96687.69;5069103;28;20181;-72
2023/08/10 05:58:35;;;;;;;7.70;5.30;;;;;;;18.55;60.54;96686.91;5069224;28;20428;-72
2023/08/10 06:01:01;;;;;;;8.63;4.63;;;;;;;19.29;58.67;96689.56;5067505;28;20202;-70
2023/08/10 06:03:27;;;;;;;4.87;4.47;;;;;;;19.17;58.83;96688.66;5066607;28;20173;-71
2023/08/10 06:05:53;;;;;;;7.57;4.40;;;;;;;20.22;56.38;96689.59;5066234;28;20178;-72
2023/08/10 06:08:19;;;;;;;6.10;4.60;;;;;;;19.85;56.42;96695.13;5066407;28;20837;-72
2023/08/10 06:10:44;;;;;;;9.40;5.50;;;;;;;19.65;57.34;96694.78;5066150;28;20404;-69
2023/08/10 06:13:10;;;;;;;13.17;6.30;;;;;;;20.05;55.59;96699.75;5066212;28;20280;-72
2023/08/10 06:15:35;;;;;;;10.97;6.67;;;;;;;19.89;56.35;96699.25;5066271;28;20174;-70
2023/08/10 06:18:01;;;;;;;8.67;5.73;;;;;;;19.96;56.36;96700.47;5066461;28;20202;-70
2023/08/10 06:20:26;;;;;;;6.70;5.37;;;;;;;19.45;57.37;96698.94;5063045;28;20178;-73
2023/08/10 06:22:53;;;;;;;5.50;5.00;;;;;;;19.66;56.46;96699.13;5052482;28;20706;-74
2023/08/10 06:25:19;;;;;;;7.93;5.67;;;;;;;19.31;57.51;96701.78;5066779;28;20186;-72
2023/08/10 06:27:44;;;;;;;6.87;4.77;;;;;;;18.67;58.69;96703.78;5072988;28;20513;-72
2023/08/10 06:30:10;;;;;;;7.20;5.13;;;;;;;18.35;59.88;96715.75;5070658;28;20176;-71
2023/08/10 06:32:37;;;;;;;5.47;4.97;;;;;;;18.52;59.83;96714.56;5088128;28;20169;-72
2023/08/10 06:35:04;;;;;;;6.43;5.13;;;;;;;19.19;57.12;96706.19;5089434;28;20410;-73
2023/08/10 06:37:30;;;;;;;5.77;5.17;;;;;;;19.92;55.05;96709.66;5089502;28;20462;-72
2023/08/10 06:39:55;;;;;;;5.40;4.90;;;;;;;20.02;54.45;96710.66;5089231;28;20439;-70
2023/08/10 06:42:21;;;;;;;8.03;4.87;;;;;;;20.03;54.77;96712.34;5088005;28;20283;-72
2023/08/10 06:44:46;;;;;;;7.63;4.70;;;;;;;19.95;54.82;96713.91;5069458;28;20159;-71
2023/08/10 06:47:12;;;;;;;16.43;4.97;;;;;;;20.58;52.71;96709.88;5069119;28;20937;-71
2023/08/10 06:49:38;;;;;;;9.73;5.20;;;;;;;20.49;53.31;96706.09;5068848;28;20167;-73
2023/08/10 06:52:04;;;;;;;9.33;4.97;;;;;;;20.70;52.37;96713.41;5069399;28;20538;-71
2023/08/10 06:54:31;;;;;;;5.63;3.87;;;;;;;20.84;51.55;96713.13;5068795;28;20452;-72
2023/08/10 06:56:57;;;;;;;6.17;3.97;;;;;;;21.11;50.85;96710.03;5068647;28;20174;-72
2023/08/10 06:59:22;;;;;;;5.93;4.17;;;;;;;21.75;49.12;96713.75;5069226;28;20404;-72
2023/08/10 07:01:47;;;;;;;11.13;4.23;;;;;;;21.73;49.38;96708.53;5068680;28;20249;-72
2023/08/10 07:04:13;;;;;;;6.97;3.77;;;;;;;21.57;49.07;96718.81;5068224;28;20330;-72
2023/08/10 07:06:38;;;;;;;6.63;4.20;;;;;;;21.15;50.09;96711.50;5068484;28;20185;-72
2023/08/10 07:09:04;;;;;;;12.17;4.00;;;;;;;20.93;50.69;96706.22;5068154;28;20194;-72
2023/08/10 07:11:30;;;;;;;6.80;3.67;;;;;;;21.25;49.66;96706.25;5064356;28;20315;-71
2023/08/10 07:13:55;;;;;;;5.00;3.60;;;;;;;20.94;50.08;96715.91;5070713;28;20579;-72
2023/08/10 07:16:21;;;;;;;7.10;4.67;;;;;;;20.97;50.28;96722.81;5073355;28;20415;-71
2023/08/10 07:18:46;;;;;;;13.60;4.97;;;;;;;20.75;50.98;96724.53;5069965;28;20213;-72
2023/08/10 07:21:12;;;;;;;10.03;3.80;;;;;;;20.93;50.86;96728.41;5063149;28;20289;-73
2023/08/10 07:23:38;;;;;;;7.60;3.93;;;;;;;21.21;49.80;96726.16;5058882;28;20179;-70
2023/08/10 07:26:03;;;;;;;4.13;3.67;;;;;;;21.31;49.53;96729.78;5067532;28;20943;-72
2023/08/10 07:28:28;;;;;;;6.80;3.70;;;;;;;20.48;51.24;96727.53;5061634;28;20722;-71
2023/08/10 07:30:54;;;;;;;6.50;3.90;;;;;;;20.18;52.48;96736.13;5059171;28;20186;-71
2023/08/10 07:33:20;;;;;;;5.50;3.90;;;;;;;20.15;52.94;96733.66;5061462;28;20197;-71
2023/08/10 07:35:46;;;;;;;4.43;4.03;;;;;;;19.93;53.87;96732.66;5067929;28;20174;-70
2023/08/10 07:38:13;;;;;;;8.43;4.20;;;;;;;19.85;54.11;96740.41;5071997;28;20445;-72
2023/08/10 07:40:38;;;;;;;7.13;3.70;;;;;;;19.50;55.03;96735.88;5073001;28;20177;-72
2023/08/10 07:43:04;;;;;;;6.53;3.70;;;;;;;19.60;55.02;96736.88;5088421;28;20888;-72
2023/08/10 07:45:29;;;;;;;10.27;4.90;;;;;;;19.51;55.18;96734.88;5088473;28;20204;-71
2023/08/10 07:47:55;;;;;;;14.93;4.57;;;;;;;19.49;55.62;96736.84;5087995;28;20181;-72
2023/08/10 07:50:20;;;;;;;7.03;4.17;;;;;;;19.56;56.01;96739.88;5087974;28;20658;-72
2023/08/10 07:52:45;;;;;;;7.80;4.73;;;;;;;19.99;54.11;96736.69;5084247;28;20162;-71
2023/08/10 07:55:13;;;;;;;4.93;4.33;;;;;;;20.04;54.86;96739.84;5068147;28;20993;-72
2023/08/10 07:57:39;;;;;;;5.70;3.40;;;;;;;20.30;54.29;96729.84;5066535;28;20206;-71
2023/08/10 08:00:06;;;;;;;5.50;3.70;;;;;;;20.22;54.46;96729.56;5065179;28;20431;-72
2023/08/10 08:02:32;;;;;;;6.10;3.83;;;;;;;20.60;53.48;96725.75;5066883;28;20412;-74
2023/08/10 08:04:58;;;;;;;6.43;5.07;;;;;;;20.39;52.95;96723.78;5065459;28;20440;-74
2023/08/10 08:07:25;;;;;;;8.80;4.00;;;;;;;20.26;54.03;96729.22;5062806;28;20517;-73
2023/08/10 08:09:51;;;;;;;6.67;3.03;;;;;;;20.16;54.24;96727.38;5064346;28;20639;-71
2023/08/10 08:12:17;;;;;;;9.57;4.03;;;;;;;19.83;55.49;96731.66;5069255;28;20419;-74
2023/08/10 08:14:43;;;;;;;7.83;3.83;;;;;;;20.18;54.95;96731.63;5061712;28;20709;-73
2023/08/10 08:17:09;;;;;;;4.03;3.53;;;;;;;20.42;53.79;96749.34;5061564;28;20213;-71
2023/08/10 08:19:36;;;;;;;5.00;3.73;;;;;;;20.35;53.94;96743.66;5067759;28;20474;-73
2023/08/10 08:22:02;;;;;;;8.20;3.83;;;;;;;20.18;54.11;96746.78;5072775;28;21105;-74
2023/08/10 08:24:28;;;;;;;6.17;4.00;;;;;;;20.00;55.21;96741.88;5068813;28;20492;-74
2023/08/10 08:26:53;;;;;;;8.00;3.80;;;;;;;20.21;54.88;96742.03;5062058;28;20432;-70
2023/08/10 08:29:19;;;;;;;5.13;3.37;;;;;;;20.16;54.97;96741.56;5065078;28;20174;-69
2023/08/10 08:31:44;;;;;;;11.73;4.70;;;;;;;20.49;54.45;96735.41;5080040;28;20173;-71
2023/08/10 08:34:10;;;;;;;11.10;4.23;;;;;;;20.92;53.13;96737.38;5072200;28;20215;-69
2023/08/10 08:36:36;;;;;;;14.27;4.27;;;;;;;20.81;53.24;96736.53;5068134;28;20182;-67
2023/08/10 08:39:01;;;;;;;13.47;4.63;;;;;;;20.82;53.17;96744.41;5065978;28;20248;-68
2023/08/10 08:41:34;;;;;;;6.10;3.63;;;;;;;20.42;54.29;96733.34;5067017;28;20846;-67
2023/08/10 08:44:00;;;;;;;7.87;4.50;;;;;;;20.58;54.56;96735.72;5067622;28;20359;-70
2023/08/10 08:46:30;;;;;;;4.63;3.03;;;;;;;20.64;54.03;96729.88;5067138;28;20495;-68
2023/08/10 08:48:56;;;;;;;12.33;6.10;;;;;;;20.93;53.68;96727.56;5047784;28;20194;-69
2023/08/10 08:51:22;;;;;;;3.77;3.07;;;;;;;20.75;53.48;96729.88;5049103;28;20414;-68
2023/08/10 08:53:49;;;;;;;7.83;3.13;;;;;;;21.06;53.05;96724.75;5048288;28;20230;-70
2023/08/10 08:56:14;;;;;;;5.17;3.33;;;;;;;21.12;53.51;96734.94;5047798;28;20182;-68
2023/08/10 08:58:39;;;;;;;4.17;3.70;;;;;;;20.87;54.23;96733.38;5048093;28;20509;-71
2023/08/10 09:01:08;;;;;;;6.80;4.13;;;;;;;20.61;54.76;96719.47;5063850;28;20530;-69
2023/08/10 09:03:33;;;;;;;4.30;3.90;;;;;;;20.38;55.37;96723.91;5068812;28;20697;-67
2023/08/10 09:06:00;;;;;;;4.60;2.83;;;;;;;21.24;53.13;96725.09;5069458;28;20458;-67
2023/08/10 09:08:26;;;;;;;6.43;3.30;;;;;;;21.66;51.61;96726.06;5069871;28;20250;-67
2023/08/10 09:10:53;;;;;;;6.83;4.20;;;;;;;22.11;50.58;96720.47;5068684;28;20533;-69
2023/08/10 09:13:23;;;;;;;6.10;3.90;;;;;;;22.59;49.73;96711.91;5088166;28;20799;-68
2023/08/10 09:16:09;;;;;;;10.23;2.83;;;;;;;22.72;49.09;96708.13;5089849;28;20718;-69
2023/08/10 09:18:36;;;;;;;9.57;3.93;;;;;;;23.02;48.14;96693.91;5090122;28;20673;-69
2023/08/10 09:21:17;;;;;;;5.30;3.23;;;;;;;23.17;47.76;96691.66;5047872;28;20445;-68
2023/08/10 09:23:45;;;;;;;16.37;4.33;;;;;;;23.46;46.88;96694.41;5048651;28;20897;-69
2023/08/10 09:26:14;;;;;;;19.90;5.70;;;;;;;23.10;48.05;96688.69;5047478;28;20477;-70
2023/08/10 09:28:40;;;;;;;9.43;3.50;;;;;;;23.07;48.22;96690.81;5047220;28;20890;-68
2023/08/10 09:31:10;;;;;;;4.60;3.20;;;;;;;22.50;49.27;96688.63;5048121;28;20406;-69
2023/08/10 09:33:36;;;;;;;4.30;3.67;;;;;;;22.29;49.62;96695.84;5049213;28;20664;-68
2023/08/10 09:36:07;;;;;;;3.63;3.30;;;;;;;22.25;49.66;96699.75;5049209;28;20409;-68
2023/08/10 09:38:33;;;;;;;4.90;4.17;;;;;;;22.25;49.23;96683.72;5047744;28;20520;-69
2023/08/10 09:41:13;;;;;;;8.90;3.20;;;;;;;22.75;48.24;96675.78;5045906;28;20413;-69
2023/08/10 09:43:40;;;;;;;12.57;4.43;;;;;;;23.44;47.07;96678.47;5048764;28;20418;-68
2023/08/10 09:46:07;;;;;;;6.73;3.13;;;;;;;23.27;47.31;96681.84;5047884;28;20420;-69
2023/08/10 09:48:50;;;;;;;4.53;3.10;;;;;;;23.14;48.15;96682.09;5046701;28;20431;-67
2023/08/10 09:51:16;;;;;;;6.70;3.80;;;;;;;22.95;47.92;96684.69;5048359;28;20412;-69
2023/08/10 09:53:41;;;;;;;3.47;2.80;;;;;;;22.76;48.20;96689.00;5061267;28;20784;-68
2023/08/10 09:56:07;;;;;;;6.70;3.87;;;;;;;22.04;50.33;96692.59;5057762;28;20177;-69
2023/08/10 09:58:41;;;;;;;4.50;3.77;;;;;;;22.55;49.39;96688.22;5066070;28;20265;-69
2023/08/10 10:01:07;;;;;;;13.23;4.17;;;;;;;23.15;47.99;96686.47;5071966;28;20590;-69
2023/08/10 10:03:33;;;;;;;93.60;11.20;;;;;;;23.65;46.77;96682.84;5067580;28;20470;-68
2023/08/10 10:06:00;;;;;;;70.80;8.10;;;;;;;24.11;45.96;96678.56;5067105;28;20404;-68
2023/08/10 10:08:26;;;;;;;22.23;3.83;;;;;;;24.06;46.18;96679.00;5065087;28;20194;-70
2023/08/10 10:10:54;;;;;;;19.43;4.00;;;;;;;24.02;45.81;96677.59;5063095;28;20416;-69
2023/08/10 10:13:21;;;;;;;3.37;3.07;;;;;;;23.74;46.03;96671.31;5077599;28;20201;-70
2023/08/10 10:15:48;;;;;;;8.33;4.17;;;;;;;24.04;45.11;96674.75;5065570;28;20401;-68
2023/08/10 10:18:14;;;;;;;10.93;3.30;;;;;;;24.06;46.39;96673.63;5066419;28;20464;-68
2023/08/10 10:20:42;;;;;;;24.70;4.73;;;;;;;24.29;45.38;96668.78;5076487;28;20412;-68
2023/08/10 10:23:16;;;;;;;12.40;3.83;;;;;;;24.02;46.01;96676.75;5067516;28;20423;-67
2023/08/10 10:25:56;;;;;;;14.53;4.37;;;;;;;23.98;45.37;96670.00;5066805;28;20412;-67
2023/08/10 10:28:21;;;;;;;21.43;4.27;;;;;;;24.11;45.79;96673.19;5067448;28;20489;-68
2023/08/10 10:31:06;;;;;;;10.13;3.67;;;;;;;24.06;45.61;96667.44;5065726;28;21025;-68
2023/08/10 10:33:32;;;;;;;6.70;3.33;;;;;;;24.15;44.22;96655.84;5066890;28;20256;-68
2023/08/10 10:36:12;;;;;;;7.57;3.37;;;;;;;23.61;45.83;96660.00;5066457;28;20507;-70
2023/08/10 10:38:46;;;;;;;4.30;3.00;;;;;;;23.86;43.94;96653.22;5065081;28;20435;-68
2023/08/10 10:41:15;;;;;;;14.10;4.23;;;;;;;23.77;45.13;96644.22;5061755;28;20739;-74
2023/08/10 10:43:44;;;;;;;3.80;3.43;;;;;;;23.47;43.72;96645.19;5063772;28;20519;-70
2023/08/10 10:46:31;;;;;;;14.07;3.37;;;;;;;22.98;45.35;96645.13;5064010;28;20792;-71
2023/08/10 10:48:58;;;;;;;9.00;4.60;;;;;;;23.29;45.16;96642.34;5064447;28;20557;-71
2023/08/10 10:51:24;;;;;;;11.57;3.63;;;;;;;23.09;44.26;96640.66;5067165;28;20435;-70
2023/08/10 10:53:53;;;;;;;7.33;3.37;;;;;;;22.97;45.82;96637.22;5067972;28;20831;-70
2023/08/10 10:56:19;;;;;;;5.80;4.63;;;;;;;22.80;45.94;96630.72;5063646;28;20405;-70
2023/08/10 10:58:46;;;;;;;3.40;3.10;;;;;;;22.96;45.13;96631.03;5073168;28;20561;-70
2023/08/10 11:01:12;;;;;;;5.60;2.90;;;;;;;22.85;42.78;96617.78;5056707;28;20463;-69
2023/08/10 11:03:42;;;;;;;5.17;2.80;;;;;;;22.96;41.96;96620.34;5056443;28;20650;-71
2023/08/10 11:06:14;;;;;;;4.20;3.10;;;;;;;23.12;41.15;96627.00;5063883;28;20412;-70
2023/08/10 11:08:39;;;;;;;4.40;3.70;;;;;;;23.08;43.46;96625.56;5067299;28;20925;-70
2023/08/10 11:11:05;;;;;;;2.80;2.50;;;;;;;22.95;42.84;96618.63;5066299;28;20419;-69
2023/08/10 11:13:31;;;;;;;10.20;3.60;;;;;;;23.14;43.04;96615.16;5087162;28;20434;-69
2023/08/10 11:15:56;;;;;;;3.80;3.03;;;;;;;23.21;43.14;96607.41;5062378;28;20223;-71
2023/08/10 11:18:22;;;;;;;5.13;3.17;;;;;;;23.09;42.98;96609.38;5066877;28;20455;-70
2023/08/10 11:20:48;;;;;;;3.73;3.20;;;;;;;22.93;42.29;96609.88;5051230;28;20228;-69
2023/08/10 11:23:14;;;;;;;7.93;3.13;;;;;;;22.80;44.21;96607.47;5061791;28;20201;-71
2023/08/10 11:25:46;;;;;;;5.60;3.20;;;;;;;22.73;44.47;96602.84;5059575;28;21000;-71
2023/08/10 11:28:14;;;;;;;5.83;3.50;;;;;;;23.00;44.13;96591.47;5067222;28;20440;-74
2023/08/10 11:30:40;;;;;;;11.20;3.50;;;;;;;22.99;43.47;96598.66;5066853;28;20408;-71